createdAt,value
2024-05-09T00:00:54.959Z,12.85
2024-05-09T00:02:22.660Z,12.87
2024-05-09T00:03:25.730Z,12.85
2024-05-09T00:04:28.204Z,12.83
2024-05-09T00:05:30.743Z,12.78
2024-05-09T00:06:32.990Z,12.79
2024-05-09T00:07:36.862Z,12.77
2024-05-09T00:08:42.725Z,12.77
2024-05-09T00:09:46.814Z,12.81
2024-05-09T00:10:50.571Z,12.78
2024-05-09T00:11:54.604Z,12.73
2024-05-09T00:12:56.873Z,12.81
2024-05-09T00:14:03.057Z,12.80
2024-05-09T00:15:05.498Z,12.78
2024-05-09T00:16:09.544Z,12.80
2024-05-09T00:17:11.858Z,12.73
2024-05-09T00:18:18.137Z,12.82
2024-05-09T00:19:20.857Z,12.79
2024-05-09T00:20:42.719Z,12.86
2024-05-09T00:21:45.784Z,12.88
2024-05-09T00:22:48.204Z,12.88
2024-05-09T00:23:50.524Z,12.92
2024-05-09T00:24:59.344Z,12.95
2024-05-09T00:26:04.683Z,12.90
2024-05-09T00:27:07.605Z,12.93
2024-05-09T00:28:13.430Z,12.93
2024-05-09T00:29:16.221Z,12.93
2024-05-09T00:30:31.025Z,12.90
2024-05-09T00:31:38.645Z,12.90
2024-05-09T00:32:41.113Z,12.91
2024-05-09T00:33:44.816Z,12.90
2024-05-09T00:34:46.972Z,12.91
2024-05-09T00:35:49.293Z,12.91
2024-05-09T00:36:51.269Z,12.87
2024-05-09T00:37:55.178Z,12.89
2024-05-09T00:38:57.178Z,12.90
2024-05-09T00:40:31.207Z,12.83
2024-05-09T00:41:40.860Z,12.84
2024-05-09T00:42:46.363Z,12.82
2024-05-09T00:43:48.409Z,12.83
2024-05-09T00:44:50.744Z,12.81
2024-05-09T00:45:55.796Z,12.80
2024-05-09T00:46:58.711Z,12.80
2024-05-09T00:48:06.154Z,12.76
2024-05-09T00:49:11.670Z,12.80
2024-05-09T00:50:19.428Z,12.80
2024-05-09T00:51:28.404Z,12.79
2024-05-09T00:52:31.965Z,12.80
2024-05-09T00:53:53.526Z,12.80
2024-05-09T00:54:58.183Z,12.78
2024-05-09T00:56:00.598Z,12.77
2024-05-09T00:57:05.787Z,12.73
2024-05-09T00:58:11.336Z,12.72
2024-05-09T00:59:15.448Z,12.71
2024-05-09T01:00:26.601Z,12.71
2024-05-09T01:01:40.362Z,12.71
2024-05-09T01:02:45.838Z,12.66
2024-05-09T01:03:51.181Z,12.69
2024-05-09T01:04:54.675Z,12.70
2024-05-09T01:06:01.395Z,12.65
2024-05-09T01:07:04.671Z,12.66
2024-05-09T01:08:09.457Z,12.61
2024-05-09T01:09:14.903Z,12.66
2024-05-09T01:10:23.878Z,12.66
2024-05-09T01:11:40.768Z,12.65
2024-05-09T01:12:46.179Z,12.66
2024-05-09T01:13:51.628Z,12.67
2024-05-09T01:14:54.642Z,12.67
2024-05-09T01:15:57.164Z,12.66
2024-05-09T01:17:00.764Z,12.67
2024-05-09T01:18:08.960Z,12.68
2024-05-09T01:19:29.716Z,12.64
2024-05-09T01:20:40.346Z,12.66
2024-05-09T01:21:45.441Z,12.65
2024-05-09T01:22:53.239Z,12.65
2024-05-09T01:23:55.774Z,12.65
2024-05-09T01:24:57.996Z,12.65
2024-05-09T01:26:00.411Z,12.61
2024-05-09T01:27:02.992Z,12.61
2024-05-09T01:28:05.685Z,12.61
2024-05-09T01:29:08.090Z,12.61
2024-05-09T01:30:17.008Z,12.61
2024-05-09T01:31:24.642Z,12.61
2024-05-09T01:32:27.134Z,12.63
2024-05-09T01:33:31.418Z,12.66
2024-05-09T01:34:35.907Z,12.62
2024-05-09T01:35:42.792Z,12.64
2024-05-09T01:36:45.225Z,12.61
2024-05-09T01:37:48.035Z,12.61
2024-05-09T01:38:52.872Z,12.61
2024-05-09T01:39:58.700Z,12.56
2024-05-09T01:41:01.090Z,12.55
2024-05-09T01:42:03.750Z,12.55
2024-05-09T01:43:11.939Z,12.59
2024-05-09T01:44:16.659Z,12.55
2024-05-09T01:45:18.923Z,12.59
2024-05-09T01:46:21.160Z,12.59
2024-05-09T01:47:23.618Z,12.55
2024-05-09T01:48:26.067Z,12.54
2024-05-09T01:49:28.511Z,12.52
2024-05-09T01:50:37.689Z,12.55
2024-05-09T01:51:43.413Z,12.52
2024-05-09T01:52:47.476Z,12.48
2024-05-09T01:53:53.552Z,12.50
2024-05-09T01:54:57.460Z,12.48
2024-05-09T01:56:00.138Z,12.44
2024-05-09T01:57:02.465Z,12.45
2024-05-09T01:58:10.648Z,12.43
2024-05-09T01:59:13.264Z,12.41
2024-05-09T02:00:22.229Z,12.42
2024-05-09T02:01:56.097Z,12.38
2024-05-09T02:03:02.248Z,12.36
2024-05-09T02:04:06.126Z,12.42
2024-05-09T02:05:08.420Z,12.42
2024-05-09T02:06:12.734Z,12.38
2024-05-09T02:07:15.558Z,12.39
2024-05-09T02:08:22.128Z,12.41
2024-05-09T02:09:25.939Z,12.39
2024-05-09T02:10:32.506Z,12.38
2024-05-09T02:11:47.562Z,12.37
2024-05-09T02:13:17.500Z,12.38
2024-05-09T02:14:22.696Z,12.35
2024-05-09T02:15:24.982Z,12.34
2024-05-09T02:16:28.675Z,12.34
2024-05-09T02:17:31.307Z,12.33
2024-05-09T02:18:33.500Z,12.34
2024-05-09T02:19:35.787Z,12.33
2024-05-09T02:20:44.382Z,12.32
2024-05-09T02:21:47.294Z,12.34
2024-05-09T02:22:50.344Z,12.31
2024-05-09T02:23:52.914Z,12.33
2024-05-09T02:24:55.118Z,12.32
2024-05-09T02:25:57.498Z,12.34
2024-05-09T02:27:25.341Z,12.36
2024-05-09T02:28:27.660Z,12.33
2024-05-09T02:29:34.267Z,12.31
2024-05-09T02:30:42.690Z,12.32
2024-05-09T02:31:45.189Z,12.32
2024-05-09T02:32:48.759Z,12.32
2024-05-09T02:33:52.944Z,12.33
2024-05-09T02:34:55.430Z,12.32
2024-05-09T02:35:57.687Z,12.28
2024-05-09T02:37:25.142Z,12.31
2024-05-09T02:38:27.235Z,12.27
2024-05-09T02:39:29.539Z,12.26
2024-05-09T02:40:37.538Z,12.28
2024-05-09T02:41:43.741Z,12.28
2024-05-09T02:43:11.788Z,12.30
2024-05-09T02:44:14.915Z,12.29
2024-05-09T02:45:23.794Z,12.26
2024-05-09T02:46:26.801Z,12.26
2024-05-09T02:47:29.356Z,12.25
2024-05-09T02:48:31.822Z,12.25
2024-05-09T02:49:36.808Z,12.25
2024-05-09T02:50:54.451Z,12.23
2024-05-09T02:52:21.232Z,12.23
2024-05-09T02:53:23.710Z,12.22
2024-05-09T02:55:55.931Z,12.24
2024-05-09T02:57:00.474Z,12.22
2024-05-09T02:58:02.812Z,12.21
2024-05-09T02:59:04.952Z,12.27
2024-05-09T03:00:18.417Z,12.26
2024-05-09T03:01:24.980Z,12.24
2024-05-09T03:02:35.519Z,12.20
2024-05-09T03:03:43.676Z,12.26
2024-05-09T03:04:46.594Z,12.28
2024-05-09T03:05:50.797Z,12.27
2024-05-09T03:06:53.036Z,12.25
2024-05-09T03:07:55.264Z,12.24
2024-05-09T03:09:22.691Z,12.24
2024-05-09T03:10:29.049Z,12.20
2024-05-09T03:11:41.202Z,12.23
2024-05-09T03:12:45.167Z,12.23
2024-05-09T03:13:49.740Z,12.22
2024-05-09T03:14:54.071Z,12.25
2024-05-09T03:15:59.050Z,12.24
2024-05-09T03:17:03.245Z,12.23
2024-05-09T03:18:05.928Z,12.22
2024-05-09T03:19:12.729Z,12.23
2024-05-09T03:20:20.727Z,12.23
2024-05-09T03:21:27.336Z,12.22
2024-05-09T03:22:29.907Z,12.28
2024-05-09T03:23:33.259Z,12.34
2024-05-09T03:24:35.811Z,12.45
2024-05-09T03:25:37.899Z,12.47
2024-05-09T03:26:40.538Z,12.65
2024-05-09T03:27:43.716Z,12.74
2024-05-09T03:28:45.986Z,12.83
2024-05-09T03:29:52.461Z,12.85
2024-05-09T03:30:56.171Z,12.94
2024-05-09T03:31:59.831Z,13.15
2024-05-09T03:33:02.238Z,13.23
2024-05-09T03:34:05.983Z,13.15
2024-05-09T03:35:35.358Z,13.31
2024-05-09T03:36:42.034Z,13.35
2024-05-09T03:38:04.628Z,13.55
2024-05-09T03:39:11.676Z,13.74
2024-05-09T03:40:23.802Z,13.77
2024-05-09T03:41:28.880Z,13.94
2024-05-09T03:42:31.162Z,14.10
2024-05-09T03:43:35.909Z,14.15
2024-05-09T03:44:38.139Z,14.35
2024-05-09T03:46:00.615Z,14.38
2024-05-09T03:47:04.493Z,14.39
2024-05-09T03:48:07.319Z,14.43
2024-05-09T03:49:13.675Z,14.65
2024-05-09T03:50:33.729Z,14.91
2024-05-09T03:51:38.140Z,14.93
2024-05-09T03:52:54.937Z,15.12
2024-05-09T03:53:57.724Z,15.21
2024-05-09T03:55:05.928Z,15.10
2024-05-09T03:56:08.682Z,14.68
2024-05-09T03:57:11.104Z,14.59
2024-05-09T03:58:14.146Z,13.99
2024-05-09T03:59:17.215Z,13.88
2024-05-09T04:00:30.029Z,13.65
2024-05-09T04:01:37.654Z,13.57
2024-05-09T04:02:42.448Z,13.44
2024-05-09T04:03:45.146Z,13.39
2024-05-09T04:04:48.315Z,13.28
2024-05-09T04:05:50.947Z,13.15
2024-05-09T04:06:53.385Z,13.07
2024-05-09T04:07:55.620Z,13.07
2024-05-09T04:09:03.459Z,12.97
2024-05-09T04:10:11.142Z,13.03
2024-05-09T04:11:19.279Z,12.94
2024-05-09T04:12:21.617Z,12.88
2024-05-09T04:13:23.910Z,12.87
2024-05-09T04:14:34.160Z,12.86
2024-05-09T04:16:05.818Z,12.79
2024-05-09T04:17:11.733Z,12.79
2024-05-09T04:18:16.440Z,12.78
2024-05-09T04:19:23.179Z,12.83
2024-05-09T04:20:36.726Z,12.82
2024-05-09T04:21:49.642Z,12.86
2024-05-09T04:22:58.715Z,12.87
2024-05-09T04:24:00.933Z,12.88
2024-05-09T04:25:03.583Z,12.93
2024-05-09T04:26:07.971Z,12.96
2024-05-09T04:27:10.282Z,13.02
2024-05-09T04:28:15.681Z,13.05
2024-05-09T04:29:20.006Z,13.04
2024-05-09T04:30:34.683Z,13.01
2024-05-09T04:31:42.630Z,13.00
2024-05-09T04:32:45.243Z,13.10
2024-05-09T04:33:50.127Z,13.27
2024-05-09T04:34:56.686Z,13.33
2024-05-09T04:36:03.958Z,13.51
2024-05-09T04:37:06.010Z,13.65
2024-05-09T04:38:08.635Z,13.94
2024-05-09T04:39:10.932Z,14.10
2024-05-09T04:40:24.217Z,14.40
2024-05-09T04:41:58.413Z,15.06
2024-05-09T04:43:01.195Z,15.55
2024-05-09T04:44:03.753Z,15.91
2024-05-09T04:45:06.328Z,16.38
2024-05-09T04:46:08.557Z,16.82
2024-05-09T04:47:11.770Z,16.42
2024-05-09T04:48:15.224Z,16.55
2024-05-09T04:49:17.883Z,16.78
2024-05-09T04:50:29.330Z,16.70
2024-05-09T04:51:37.896Z,16.72
2024-05-09T04:52:40.215Z,16.69
2024-05-09T04:53:42.880Z,16.75
2024-05-09T04:54:46.419Z,16.25
2024-05-09T04:55:49.386Z,15.97
2024-05-09T04:56:51.662Z,16.06
2024-05-09T04:57:53.862Z,16.39
2024-05-09T04:58:57.741Z,16.95
2024-05-09T05:00:01.323Z,17.35
2024-05-09T05:01:28.525Z,17.76
2024-05-09T05:02:31.828Z,17.45
2024-05-09T05:03:36.970Z,17.53
2024-05-09T05:04:39.436Z,17.94
2024-05-09T05:05:43.392Z,17.75
2024-05-09T05:06:48.455Z,18.00
2024-05-09T05:07:50.891Z,17.78
2024-05-09T05:09:01.868Z,18.06
2024-05-09T05:10:05.838Z,17.63
2024-05-09T05:11:14.106Z,18.31
2024-05-09T05:12:36.235Z,18.24
2024-05-09T05:13:41.445Z,18.36
2024-05-09T05:14:45.772Z,18.12
2024-05-09T05:15:57.390Z,18.38
2024-05-09T05:17:26.616Z,18.38
2024-05-09T05:18:29.426Z,18.73
2024-05-09T05:19:32.125Z,18.31
2024-05-09T05:20:38.061Z,18.01
2024-05-09T05:21:44.662Z,18.02
2024-05-09T05:22:47.841Z,18.25
2024-05-09T05:23:53.774Z,18.56
2024-05-09T05:24:56.079Z,18.94
2024-05-09T05:25:58.084Z,18.92
2024-05-09T05:27:03.812Z,19.58
2024-05-09T05:28:06.784Z,19.99
2024-05-09T05:29:09.121Z,19.72
2024-05-09T05:30:17.639Z,19.09
2024-05-09T05:31:23.571Z,19.51
2024-05-09T05:32:26.941Z,19.94
2024-05-09T05:33:41.056Z,20.17
2024-05-09T05:34:43.184Z,20.01
2024-05-09T05:35:46.759Z,19.50
2024-05-09T05:36:49.356Z,20.03
2024-05-09T05:37:52.248Z,20.22
2024-05-09T05:38:55.325Z,20.39
2024-05-09T05:39:58.446Z,20.41
2024-05-09T05:41:00.802Z,19.87
2024-05-09T05:42:06.661Z,20.03
2024-05-09T05:43:15.925Z,19.87
2024-05-09T05:44:18.946Z,20.10
2024-05-09T05:45:21.407Z,20.12
2024-05-09T05:46:23.622Z,19.86
2024-05-09T05:47:26.049Z,19.90
2024-05-09T05:48:33.526Z,19.58
2024-05-09T05:49:35.973Z,19.51
2024-05-09T05:50:38.910Z,19.60
2024-05-09T05:51:41.522Z,19.43
2024-05-09T05:52:43.798Z,20.02
2024-05-09T05:53:46.253Z,19.50
2024-05-09T05:54:48.540Z,19.43
2024-05-09T05:55:52.589Z,18.59
2024-05-09T05:56:56.559Z,19.09
2024-05-09T05:58:00.836Z,19.38
2024-05-09T05:59:03.133Z,19.02
2024-05-09T06:00:17.989Z,19.19
2024-05-09T06:01:28.034Z,19.29
2024-05-09T06:02:31.548Z,19.15
2024-05-09T06:03:34.114Z,18.96
2024-05-09T06:04:36.552Z,18.88
2024-05-09T06:05:39.018Z,19.38
2024-05-09T06:06:43.577Z,19.34
2024-05-09T06:07:48.662Z,19.28
2024-05-09T06:08:51.397Z,19.41
2024-05-09T06:09:54.615Z,19.70
2024-05-09T06:10:57.147Z,19.45
2024-05-09T06:11:59.553Z,19.46
2024-05-09T06:13:01.800Z,19.35
2024-05-09T06:14:04.434Z,19.42
2024-05-09T06:15:06.961Z,19.10
2024-05-09T06:16:09.473Z,19.48
2024-05-09T06:17:12.079Z,19.59
2024-05-09T06:18:17.069Z,19.02
2024-05-09T06:19:19.574Z,19.10
2024-05-09T06:20:27.836Z,18.88
2024-05-09T06:21:36.981Z,19.09
2024-05-09T06:22:39.258Z,18.47
2024-05-09T06:23:48.936Z,18.39
2024-05-09T06:24:51.742Z,18.43
2024-05-09T06:25:54.084Z,17.87
2024-05-09T06:26:56.373Z,18.29
2024-05-09T06:28:02.531Z,17.95
2024-05-09T06:29:05.837Z,17.76
2024-05-09T06:30:14.451Z,17.69
2024-05-09T06:31:23.315Z,18.04
2024-05-09T06:32:25.675Z,17.83
2024-05-09T06:33:28.406Z,17.89
2024-05-09T06:34:35.328Z,17.82
2024-05-09T06:35:38.084Z,18.12
2024-05-09T06:36:40.450Z,18.13
2024-05-09T06:37:42.754Z,18.05
2024-05-09T06:38:49.929Z,18.06
2024-05-09T06:39:53.109Z,17.83
2024-05-09T06:40:55.414Z,18.11
2024-05-09T06:41:57.897Z,18.07
2024-05-09T06:43:00.169Z,18.33
2024-05-09T06:44:05.369Z,18.66
2024-05-09T06:45:11.104Z,18.49
2024-05-09T06:46:13.303Z,18.74
2024-05-09T06:47:15.757Z,18.63
2024-05-09T06:48:20.213Z,18.41
2024-05-09T06:49:22.940Z,18.32
2024-05-09T06:50:28.371Z,18.27
2024-05-09T06:51:36.668Z,18.35
2024-05-09T06:52:38.904Z,18.37
2024-05-09T06:53:41.299Z,18.43
2024-05-09T06:54:44.929Z,18.28
2024-05-09T06:55:51.813Z,18.46
2024-05-09T06:56:53.846Z,18.48
2024-05-09T06:57:56.046Z,18.29
2024-05-09T06:58:58.562Z,18.14
2024-05-09T07:00:01.103Z,18.18
2024-05-09T07:01:05.325Z,18.43
2024-05-09T07:02:07.495Z,18.45
2024-05-09T07:04:13.531Z,18.03
2024-05-09T07:05:16.035Z,18.05
2024-05-09T07:06:18.504Z,17.67
2024-05-09T07:07:20.869Z,17.69
2024-05-09T07:08:23.229Z,17.84
2024-05-09T07:09:25.630Z,17.82
2024-05-09T07:10:32.930Z,18.35
2024-05-09T07:11:37.982Z,18.27
2024-05-09T07:12:40.336Z,18.14
2024-05-09T07:13:42.876Z,18.18
2024-05-09T07:14:45.197Z,18.31
2024-05-09T07:15:50.123Z,18.36
2024-05-09T07:16:54.079Z,18.46
2024-05-09T07:17:57.992Z,18.15
2024-05-09T07:19:00.202Z,17.65
2024-05-09T07:20:08.995Z,17.56
2024-05-09T07:21:11.712Z,17.62
2024-05-09T07:22:14.822Z,17.79
2024-05-09T07:23:17.578Z,18.05
2024-05-09T07:24:20.157Z,18.24
2024-05-09T07:25:22.774Z,18.34
2024-05-09T07:26:25.173Z,18.40
2024-05-09T07:27:30.132Z,18.72
2024-05-09T07:28:33.439Z,18.93
2024-05-09T07:29:38.540Z,19.05
2024-05-09T07:30:43.671Z,19.03
2024-05-09T07:31:46.891Z,18.94
2024-05-09T07:32:52.091Z,18.83
2024-05-09T07:33:54.497Z,18.64
2024-05-09T07:34:56.901Z,18.62
2024-05-09T07:35:59.422Z,18.85
2024-05-09T07:37:01.804Z,18.60
2024-05-09T07:38:04.141Z,18.97
2024-05-09T07:39:07.554Z,19.00
2024-05-09T07:40:14.740Z,19.21
2024-05-09T07:41:23.289Z,18.95
2024-05-09T07:42:25.674Z,19.08
2024-05-09T07:43:28.061Z,19.00
2024-05-09T07:44:32.024Z,18.91
2024-05-09T07:47:44.967Z,19.18
2024-05-09T07:50:54.071Z,19.40
2024-05-09T07:53:22.015Z,19.25
2024-05-09T07:53:38.748Z,18.96
2024-05-09T07:54:44.293Z,19.05
2024-05-09T07:55:47.597Z,19.11
2024-05-09T07:56:50.833Z,19.43
2024-05-09T07:57:53.336Z,19.17
2024-05-09T07:58:55.906Z,19.19
2024-05-09T08:00:29.770Z,19.17
2024-05-09T08:01:34.199Z,19.19
2024-05-09T08:02:36.514Z,19.21
2024-05-09T08:03:39.614Z,18.97
2024-05-09T08:04:42.273Z,19.00
2024-05-09T08:05:44.705Z,18.91
2024-05-09T08:06:48.948Z,18.78
2024-05-09T08:07:54.180Z,18.78
2024-05-09T08:09:00.852Z,18.83
2024-05-09T08:10:08.137Z,18.92
2024-05-09T08:11:19.385Z,19.19
2024-05-09T08:12:21.688Z,19.15
2024-05-09T08:13:27.664Z,19.28
2024-05-09T08:14:32.634Z,19.22
2024-05-09T08:15:36.731Z,19.23
2024-05-09T08:16:43.703Z,19.47
2024-05-09T08:17:47.854Z,19.55
2024-05-09T08:18:50.633Z,19.45
2024-05-09T08:19:55.413Z,19.78
2024-05-09T08:20:57.859Z,19.52
2024-05-09T08:22:05.817Z,19.53
2024-05-09T08:23:08.083Z,19.42
2024-05-09T08:24:10.454Z,19.41
2024-05-09T08:25:14.581Z,19.57
2024-05-09T08:26:17.669Z,19.70
2024-05-09T08:27:19.968Z,19.99
2024-05-09T08:28:47.880Z,20.17
2024-05-09T08:29:56.043Z,20.37
2024-05-09T08:30:58.831Z,19.94
2024-05-09T08:32:01.817Z,19.67
2024-05-09T08:33:06.471Z,19.75
2024-05-09T08:34:10.754Z,19.90
2024-05-09T08:35:17.838Z,19.98
2024-05-09T08:36:20.191Z,19.92
2024-05-09T08:37:26.000Z,19.70
2024-05-09T08:38:32.175Z,19.71
2024-05-09T08:39:34.536Z,19.91
2024-05-09T08:40:38.095Z,19.78
2024-05-09T08:42:06.916Z,19.57
2024-05-09T08:43:14.498Z,19.44
2024-05-09T08:44:19.023Z,19.48
2024-05-09T08:45:25.338Z,19.15
2024-05-09T08:46:30.290Z,19.35
2024-05-09T08:47:37.334Z,19.67
2024-05-09T08:48:44.597Z,19.81
2024-05-09T08:49:50.595Z,19.74
2024-05-09T08:50:53.017Z,19.61
2024-05-09T08:51:58.782Z,19.75
2024-05-09T08:53:01.269Z,19.88
2024-05-09T08:54:07.860Z,19.77
2024-05-09T08:55:14.811Z,19.55
2024-05-09T08:56:20.339Z,19.46
2024-05-09T08:57:25.097Z,19.62
2024-05-09T08:58:38.239Z,19.43
2024-05-09T08:59:49.764Z,19.69
2024-05-09T09:00:55.629Z,19.69
2024-05-09T09:02:12.787Z,19.81
2024-05-09T09:03:19.953Z,19.83
2024-05-09T09:05:20.186Z,19.99
2024-05-09T09:06:24.567Z,19.73
2024-05-09T09:07:32.420Z,20.10
2024-05-09T09:08:41.464Z,19.93
2024-05-09T09:09:46.838Z,20.01
2024-05-09T09:10:59.182Z,20.15
2024-05-09T09:12:08.656Z,19.98
2024-05-09T09:13:14.831Z,20.05
2024-05-09T09:14:17.150Z,19.85
2024-05-09T09:15:20.494Z,19.95
2024-05-09T09:16:35.457Z,19.61
2024-05-09T09:17:40.965Z,19.72
2024-05-09T09:18:45.235Z,19.79
2024-05-09T09:19:47.659Z,19.61
2024-05-09T09:20:50.418Z,19.57
2024-05-09T09:21:52.740Z,19.68
2024-05-09T09:22:57.657Z,19.57
2024-05-09T09:23:59.992Z,19.62
2024-05-09T09:25:10.205Z,19.78
2024-05-09T09:26:15.789Z,19.62
2024-05-09T09:27:18.527Z,19.85
2024-05-09T09:28:21.983Z,19.81
2024-05-09T09:29:49.333Z,19.61
2024-05-09T09:31:00.352Z,19.68
2024-05-09T09:32:04.282Z,19.85
2024-05-09T09:33:10.763Z,20.02
2024-05-09T09:34:13.862Z,19.82
2024-05-09T09:35:16.391Z,19.64
2024-05-09T09:36:19.466Z,19.97
2024-05-09T09:37:33.780Z,19.74
2024-05-09T09:38:38.547Z,19.91
2024-05-09T09:39:43.755Z,19.75
2024-05-09T09:40:53.503Z,19.76
2024-05-09T09:41:59.729Z,19.95
2024-05-09T09:43:05.942Z,19.98
2024-05-09T09:44:11.141Z,19.67
2024-05-09T09:45:16.399Z,19.64
2024-05-09T09:46:45.076Z,19.97
2024-05-09T09:47:58.306Z,19.59
2024-05-09T09:49:01.635Z,19.82
2024-05-09T09:50:11.831Z,20.02
2024-05-09T09:51:20.227Z,19.72
2024-05-09T09:52:23.755Z,19.77
2024-05-09T09:53:32.203Z,19.75
2024-05-09T09:54:34.884Z,19.86
2024-05-09T09:55:40.633Z,19.83
2024-05-09T09:56:44.510Z,19.95
2024-05-09T09:57:48.313Z,19.88
2024-05-09T09:59:00.356Z,19.92
2024-05-09T10:00:04.305Z,20.09
2024-05-09T10:01:16.376Z,20.20
2024-05-09T10:02:19.019Z,20.09
2024-05-09T10:03:21.752Z,20.12
2024-05-09T10:04:48.770Z,19.95
2024-05-09T10:05:53.058Z,19.98
2024-05-09T10:07:04.365Z,20.07
2024-05-09T10:08:09.447Z,19.89
2024-05-09T10:09:36.453Z,19.98
2024-05-09T10:10:38.978Z,20.05
2024-05-09T10:11:49.240Z,20.12
2024-05-09T10:13:03.823Z,20.44
2024-05-09T10:14:07.406Z,20.54
2024-05-09T10:15:10.142Z,20.52
2024-05-09T10:16:19.011Z,20.47
2024-05-09T10:17:24.518Z,20.25
2024-05-09T10:18:37.043Z,20.23
2024-05-09T10:19:47.083Z,20.42
2024-05-09T10:20:53.346Z,20.34
2024-05-09T10:22:05.717Z,20.29
2024-05-09T10:23:26.985Z,20.41
2024-05-09T10:24:51.396Z,20.23
2024-05-09T10:26:00.430Z,20.32
2024-05-09T10:27:05.653Z,20.32
2024-05-09T10:28:14.766Z,20.36
2024-05-09T10:29:18.505Z,20.49
2024-05-09T10:30:29.610Z,20.28
2024-05-09T10:31:46.459Z,20.20
2024-05-09T10:32:52.562Z,20.43
2024-05-09T10:34:20.730Z,20.46
2024-05-09T10:35:25.505Z,20.49
2024-05-09T10:36:28.748Z,20.49
2024-05-09T10:37:32.054Z,20.52
2024-05-09T10:38:35.412Z,20.47
2024-05-09T10:39:38.469Z,20.48
2024-05-09T10:40:50.238Z,20.48
2024-05-09T10:41:55.666Z,20.46
2024-05-09T10:43:05.617Z,20.40
2024-05-09T10:44:16.085Z,20.34
2024-05-09T10:45:18.488Z,20.18
2024-05-09T10:46:21.226Z,20.26
2024-05-09T10:47:25.464Z,20.42
2024-05-09T10:48:29.918Z,20.63
2024-05-09T10:49:39.911Z,20.51
2024-05-09T10:50:45.851Z,20.56
2024-05-09T10:51:48.489Z,20.25
2024-05-09T10:52:54.393Z,20.41
2024-05-09T10:53:57.933Z,20.37
2024-05-09T10:55:01.648Z,20.31
2024-05-09T10:56:08.459Z,20.30
2024-05-09T10:57:11.565Z,20.30
2024-05-09T10:58:17.115Z,20.42
2024-05-09T10:59:19.756Z,20.36
2024-05-09T11:00:27.805Z,20.34
2024-05-09T11:01:36.372Z,20.36
2024-05-09T11:02:40.161Z,20.37
2024-05-09T11:03:50.426Z,20.42
2024-05-09T11:04:53.931Z,20.63
2024-05-09T11:05:56.611Z,20.45
2024-05-09T11:07:05.478Z,20.31
2024-05-09T11:08:09.071Z,20.45
2024-05-09T11:09:11.444Z,20.30
2024-05-09T11:10:17.821Z,20.45
2024-05-09T11:11:25.270Z,20.10
2024-05-09T11:12:30.311Z,20.26
2024-05-09T11:13:38.531Z,20.39
2024-05-09T11:14:51.682Z,20.32
2024-05-09T11:15:54.194Z,20.45
2024-05-09T11:17:09.680Z,20.51
2024-05-09T11:18:24.931Z,20.53
2024-05-09T11:19:32.268Z,20.67
2024-05-09T11:20:35.712Z,20.54
2024-05-09T11:21:38.975Z,20.64
2024-05-09T11:22:41.743Z,20.44
2024-05-09T11:23:44.318Z,20.60
2024-05-09T11:24:47.745Z,20.59
2024-05-09T11:25:57.334Z,20.59
2024-05-09T11:27:03.466Z,20.71
2024-05-09T11:28:06.368Z,20.70
2024-05-09T11:29:08.618Z,20.61
2024-05-09T11:30:34.102Z,20.77
2024-05-09T11:31:46.326Z,21.00
2024-05-09T11:32:49.839Z,21.00
2024-05-09T11:33:53.387Z,20.69
2024-05-09T11:34:56.771Z,20.68
2024-05-09T11:35:59.027Z,20.67
2024-05-09T11:37:01.197Z,20.89
2024-05-09T11:38:04.119Z,20.68
2024-05-09T11:39:06.614Z,20.66
2024-05-09T11:40:16.838Z,20.72
2024-05-09T11:41:23.491Z,20.45
2024-05-09T11:42:29.276Z,20.43
2024-05-09T11:43:32.046Z,20.37
2024-05-09T11:44:34.383Z,20.52
2024-05-09T11:45:46.013Z,20.56
2024-05-09T11:46:51.684Z,20.62
2024-05-09T11:47:54.173Z,20.81
2024-05-09T11:48:56.703Z,20.88
2024-05-09T11:50:01.238Z,20.83
2024-05-09T11:51:04.143Z,21.02
2024-05-09T11:52:06.412Z,20.90
2024-05-09T11:53:08.691Z,21.11
2024-05-09T11:54:14.984Z,20.87
2024-05-09T11:55:17.615Z,20.93
2024-05-09T11:56:21.085Z,20.87
2024-05-09T11:57:26.880Z,20.79
2024-05-09T11:58:33.164Z,20.85
2024-05-09T11:59:36.321Z,20.80
2024-05-09T12:00:38.594Z,21.05
2024-05-09T12:01:41.279Z,21.25
2024-05-09T12:02:43.753Z,21.15
2024-05-09T12:03:49.604Z,21.07
2024-05-09T12:04:52.088Z,21.14
2024-05-09T12:05:54.321Z,20.95
2024-05-09T12:06:56.763Z,21.18
2024-05-09T12:07:59.725Z,21.03
2024-05-09T12:09:01.986Z,21.09
2024-05-09T12:10:11.953Z,21.12
2024-05-09T12:11:19.607Z,21.00
2024-05-09T12:12:21.644Z,21.15
2024-05-09T12:13:24.130Z,21.19
2024-05-09T12:14:26.524Z,21.16
2024-05-09T12:15:28.997Z,21.04
2024-05-09T12:16:34.931Z,21.06
2024-05-09T12:17:37.928Z,21.25
2024-05-09T12:18:40.355Z,21.14
2024-05-09T12:19:42.806Z,21.08
2024-05-09T12:20:44.913Z,20.86
2024-05-09T12:22:13.230Z,21.00
2024-05-09T12:23:19.713Z,21.15
2024-05-09T12:24:23.907Z,21.06
2024-05-09T12:25:26.290Z,21.00
2024-05-09T12:26:29.092Z,20.95
2024-05-09T12:27:36.078Z,20.93
2024-05-09T12:28:39.739Z,20.92
2024-05-09T12:29:42.081Z,20.99
2024-05-09T12:30:44.546Z,21.11
2024-05-09T12:31:47.806Z,21.02
2024-05-09T12:32:50.398Z,20.97
2024-05-09T12:33:56.744Z,21.14
2024-05-09T12:34:59.727Z,21.22
2024-05-09T12:36:01.988Z,21.04
2024-05-09T12:37:32.223Z,21.04
2024-05-09T12:38:34.874Z,20.98
2024-05-09T12:39:37.196Z,20.90
2024-05-09T12:40:42.487Z,21.03
2024-05-09T12:41:44.897Z,21.11
2024-05-09T12:42:47.191Z,21.00
2024-05-09T12:43:49.489Z,21.14
2024-05-09T12:44:51.779Z,21.25
2024-05-09T12:45:54.270Z,21.36
2024-05-09T12:46:56.594Z,21.11
2024-05-09T12:47:59.841Z,21.34
2024-05-09T12:49:02.565Z,21.36
2024-05-09T12:50:08.318Z,21.30
2024-05-09T12:51:15.801Z,21.42
2024-05-09T12:52:23.216Z,21.34
2024-05-09T12:53:25.555Z,21.33
2024-05-09T12:54:30.697Z,21.38
2024-05-09T12:55:40.152Z,21.31
2024-05-09T12:56:50.306Z,21.20
2024-05-09T12:57:54.290Z,21.29
2024-05-09T12:58:59.709Z,21.25
2024-05-09T13:00:09.346Z,21.26
2024-05-09T13:01:16.001Z,21.14
2024-05-09T13:02:21.764Z,21.20
2024-05-09T13:03:50.108Z,21.21
2024-05-09T13:04:55.868Z,21.30
2024-05-09T13:05:58.475Z,21.29
2024-05-09T13:07:04.296Z,21.41
2024-05-09T13:08:10.875Z,21.52
2024-05-09T13:09:15.172Z,21.37
2024-05-09T13:10:25.553Z,21.35
2024-05-09T13:11:35.898Z,21.29
2024-05-09T13:13:03.389Z,21.33
2024-05-09T13:14:05.783Z,21.30
2024-05-09T13:15:11.534Z,21.28
2024-05-09T13:16:17.075Z,21.32
2024-05-09T13:17:20.262Z,21.37
2024-05-09T13:18:22.626Z,21.15
2024-05-09T13:19:24.903Z,21.41
2024-05-09T13:20:32.460Z,21.34
2024-05-09T13:21:36.659Z,21.31
2024-05-09T13:22:43.275Z,21.22
2024-05-09T13:23:45.949Z,21.26
2024-05-09T13:24:51.218Z,21.31
2024-05-09T13:25:53.965Z,21.35
2024-05-09T13:26:56.307Z,21.31
2024-05-09T13:27:59.132Z,21.43
2024-05-09T13:29:04.714Z,21.47
2024-05-09T13:30:14.545Z,21.42
2024-05-09T13:31:20.249Z,21.41
2024-05-09T13:32:23.075Z,21.33
2024-05-09T13:33:50.267Z,21.34
2024-05-09T13:34:53.852Z,21.28
2024-05-09T13:35:56.828Z,21.18
2024-05-09T13:36:59.514Z,21.27
2024-05-09T13:38:03.111Z,21.27
2024-05-09T13:39:05.891Z,21.10
2024-05-09T13:40:12.031Z,21.22
2024-05-09T13:41:17.735Z,21.11
2024-05-09T13:42:48.951Z,21.21
2024-05-09T13:43:52.602Z,21.32
2024-05-09T13:44:55.027Z,21.47
2024-05-09T13:46:01.275Z,21.45
2024-05-09T13:47:08.385Z,21.50
2024-05-09T13:48:13.240Z,21.62
2024-05-09T13:49:16.079Z,21.58
2024-05-09T13:50:27.975Z,21.62
2024-05-09T13:51:36.894Z,21.53
2024-05-09T13:52:40.715Z,21.57
2024-05-09T13:53:42.989Z,21.37
2024-05-09T13:54:45.406Z,21.32
2024-05-09T13:55:50.314Z,21.33
2024-05-09T13:56:52.652Z,21.28
2024-05-09T13:57:55.192Z,21.39
2024-05-09T13:58:58.008Z,21.38
2024-05-09T14:00:00.288Z,21.41
2024-05-09T14:01:03.111Z,21.29
2024-05-09T14:02:07.157Z,21.28
2024-05-09T14:03:09.872Z,21.41
2024-05-09T14:04:14.692Z,21.38
2024-05-09T14:05:18.380Z,21.33
2024-05-09T14:06:21.010Z,21.21
2024-05-09T14:07:24.875Z,21.31
2024-05-09T14:08:28.941Z,21.39
2024-05-09T14:09:32.324Z,21.42
2024-05-09T14:10:42.154Z,21.29
2024-05-09T14:11:44.480Z,21.20
2024-05-09T14:12:49.795Z,21.19
2024-05-09T14:13:52.479Z,21.37
2024-05-09T14:14:54.954Z,21.37
2024-05-09T14:15:58.744Z,21.22
2024-05-09T14:17:01.801Z,21.38
2024-05-09T14:18:05.341Z,21.39